sensor_id;sensor_type;location;lat;lon;timestamp;pressure;altitude;pressure_sealevel;temperature;humidity
13734;BME280;43298;52.560;13.508;2023-04-22T00:00:04;100957.09;;;10.91;100.00
13734;BME280;43298;52.560;13.508;2023-04-22T00:02:31;100955.66;;;10.84;100.00
13734;BME280;43298;52.560;13.508;2023-04-22T00:04:57;100956.88;;;10.76;100.00
13734;BME280;43298;52.560;13.508;2023-04-22T00:07:22;100940.44;;;10.77;100.00
13734;BME280;43298;52.560;13.508;2023-04-22T00:09:48;100936.47;;;10.68;100.00
13734;BME280;43298;52.560;13.508;2023-04-22T00:12:14;100944.50;;;10.61;100.00
13734;BME280;43298;52.560;13.508;2023-04-22T00:14:40;100940.13;;;10.63;100.00
13734;BME280;43298;52.560;13.508;2023-04-22T00:17:06;100940.03;;;10.66;100.00
13734;BME280;43298;52.560;13.508;2023-04-22T00:19:32;100935.59;;;10.68;100.00
13734;BME280;43298;52.560;13.508;2023-04-22T00:21:59;100931.88;;;10.75;100.00
13734;BME280;43298;52.560;13.508;2023-04-22T00:24:24;100924.41;;;10.89;100.00
13734;BME280;43298;52.560;13.508;2023-04-22T00:26:50;100920.22;;;10.86;100.00
13734;BME280;43298;52.560;13.508;2023-04-22T00:29:16;100918.22;;;10.93;100.00
13734;BME280;43298;52.560;13.508;2023-04-22T00:31:42;100915.41;;;10.77;100.00
13734;BME280;43298;52.560;13.508;2023-04-22T00:34:07;100919.28;;;10.67;100.00
13734;BME280;43298;52.560;13.508;2023-04-22T00:36:33;100914.34;;;10.83;100.00
13734;BME280;43298;52.560;13.508;2023-04-22T00:38:59;100921.97;;;10.86;100.00
13734;BME280;43298;52.560;13.508;2023-04-22T00:41:25;100921.97;;;10.86;100.00
13734;BME280;43298;52.560;13.508;2023-04-22T00:43:52;100913.31;;;10.87;100.00
13734;BME280;43298;52.560;13.508;2023-04-22T00:46:19;100916.63;;;10.69;100.00
13734;BME280;43298;52.560;13.508;2023-04-22T00:48:45;100912.94;;;10.53;100.00
13734;BME280;43298;52.560;13.508;2023-04-22T00:51:11;100912.94;;;10.53;100.00
13734;BME280;43298;52.560;13.508;2023-04-22T00:53:37;100912.63;;;10.39;100.00
13734;BME280;43298;52.560;13.508;2023-04-22T00:56:03;100907.22;;;10.45;100.00
13734;BME280;43298;52.560;13.508;2023-04-22T00:58:29;100905.72;;;10.61;100.00
13734;BME280;43298;52.560;13.508;2023-04-22T01:00:55;100900.97;;;10.72;100.00
13734;BME280;43298;52.560;13.508;2023-04-22T01:03:22;100902.56;;;10.76;100.00
13734;BME280;43298;52.560;13.508;2023-04-22T01:05:48;100905.78;;;10.81;100.00
13734;BME280;43298;52.560;13.508;2023-04-22T01:08:14;100896.09;;;10.86;100.00
13734;BME280;43298;52.560;13.508;2023-04-22T01:10:41;100892.13;;;10.77;100.00
13734;BME280;43298;52.560;13.508;2023-04-22T01:13:08;100893.16;;;10.73;100.00
13734;BME280;43298;52.560;13.508;2023-04-22T01:15:34;100898.63;;;10.66;100.00
13734;BME280;43298;52.560;13.508;2023-04-22T01:18:00;100889.66;;;10.53;100.00
13734;BME280;43298;52.560;13.508;2023-04-22T01:20:29;100894.59;;;10.37;100.00
13734;BME280;43298;52.560;13.508;2023-04-22T01:22:55;100897.22;;;10.36;100.00
13734;BME280;43298;52.560;13.508;2023-04-22T01:25:25;100894.31;;;10.22;100.00
13734;BME280;43298;52.560;13.508;2023-04-22T01:27:52;100896.47;;;10.11;100.00
13734;BME280;43298;52.560;13.508;2023-04-22T01:30:17;100899.84;;;10.13;100.00
13734;BME280;43298;52.560;13.508;2023-04-22T01:32:44;100888.97;;;10.26;100.00
13734;BME280;43298;52.560;13.508;2023-04-22T01:35:10;100892.84;;;10.15;100.00
13734;BME280;43298;52.560;13.508;2023-04-22T01:37:37;100892.31;;;10.07;100.00
13734;BME280;43298;52.560;13.508;2023-04-22T01:40:04;100892.38;;;10.04;100.00
13734;BME280;43298;52.560;13.508;2023-04-22T01:42:30;100889.47;;;9.90;100.00
13734;BME280;43298;52.560;13.508;2023-04-22T01:44:56;100882.00;;;9.82;100.00
13734;BME280;43298;52.560;13.508;2023-04-22T01:47:22;100882.16;;;9.78;100.00
13734;BME280;43298;52.560;13.508;2023-04-22T01:49:48;100892.09;;;9.65;100.00
13734;BME280;43298;52.560;13.508;2023-04-22T01:52:14;100879.84;;;9.70;100.00
13734;BME280;43298;52.560;13.508;2023-04-22T01:54:40;100878.06;;;9.72;100.00
13734;BME280;43298;52.560;13.508;2023-04-22T01:57:11;100885.66;;;9.77;100.00
13734;BME280;43298;52.560;13.508;2023-04-22T01:59:39;100867.13;;;9.89;100.00
13734;BME280;43298;52.560;13.508;2023-04-22T02:02:05;100870.00;;;10.04;100.00
13734;BME280;43298;52.560;13.508;2023-04-22T02:04:31;100866.91;;;9.95;100.00
13734;BME280;43298;52.560;13.508;2023-04-22T02:06:57;100864.94;;;10.01;100.00
13734;BME280;43298;52.560;13.508;2023-04-22T02:09:23;100857.16;;;10.26;100.00
13734;BME280;43298;52.560;13.508;2023-04-22T02:11:49;100858.94;;;10.24;100.00
13734;BME280;43298;52.560;13.508;2023-04-22T02:14:15;100862.38;;;10.24;100.00
13734;BME280;43298;52.560;13.508;2023-04-22T02:16:41;100854.66;;;10.23;100.00
13734;BME280;43298;52.560;13.508;2023-04-22T02:19:07;100858.34;;;10.17;100.00
13734;BME280;43298;52.560;13.508;2023-04-22T02:21:33;100857.75;;;10.09;100.00
13734;BME280;43298;52.560;13.508;2023-04-22T02:23:59;100850.97;;;10.07;100.00
13734;BME280;43298;52.560;13.508;2023-04-22T02:26:25;100846.66;;;10.07;100.00
13734;BME280;43298;52.560;13.508;2023-04-22T02:28:51;100851.41;;;9.95;100.00
13734;BME280;43298;52.560;13.508;2023-04-22T02:31:17;100852.19;;;9.97;100.00
13734;BME280;43298;52.560;13.508;2023-04-22T02:33:43;100848.19;;;9.88;100.00
13734;BME280;43298;52.560;13.508;2023-04-22T02:36:09;100846.97;;;9.75;100.00
13734;BME280;43298;52.560;13.508;2023-04-22T02:38:36;100836.81;;;9.94;100.00
13734;BME280;43298;52.560;13.508;2023-04-22T02:41:02;100835.97;;;9.93;100.00
13734;BME280;43298;52.560;13.508;2023-04-22T02:43:28;100832.69;;;9.88;100.00
13734;BME280;43298;52.560;13.508;2023-04-22T02:45:54;100828.38;;;9.89;100.00
13734;BME280;43298;52.560;13.508;2023-04-22T02:48:20;100823.22;;;9.89;100.00
13734;BME280;43298;52.560;13.508;2023-04-22T02:50:46;100828.94;;;9.74;100.00
13734;BME280;43298;52.560;13.508;2023-04-22T02:53:12;100830.97;;;9.66;100.00
13734;BME280;43298;52.560;13.508;2023-04-22T02:55:42;100827.28;;;9.73;100.00
13734;BME280;43298;52.560;13.508;2023-04-22T02:58:08;100826.03;;;9.60;100.00
13734;BME280;43298;52.560;13.508;2023-04-22T03:00:34;100825.94;;;9.63;100.00
13734;BME280;43298;52.560;13.508;2023-04-22T03:03:00;100824.97;;;9.65;100.00
13734;BME280;43298;52.560;13.508;2023-04-22T03:05:26;100826.28;;;9.52;100.00
13734;BME280;43298;52.560;13.508;2023-04-22T03:07:53;100828.81;;;9.54;100.00
13734;BME280;43298;52.560;13.508;2023-04-22T03:10:20;100823.94;;;9.46;100.00
13734;BME280;43298;52.560;13.508;2023-04-22T03:12:45;100825.88;;;9.40;100.00
13734;BME280;43298;52.560;13.508;2023-04-22T03:15:11;100825.78;;;9.43;100.00
13734;BME280;43298;52.560;13.508;2023-04-22T03:17:37;100821.97;;;9.30;100.00
13734;BME280;43298;52.560;13.508;2023-04-22T03:20:03;100821.88;;;9.31;100.00
13734;BME280;43298;52.560;13.508;2023-04-22T03:22:29;100823.00;;;9.24;100.00
13734;BME280;43298;52.560;13.508;2023-04-22T03:24:55;100820.09;;;9.10;100.00
13734;BME280;43298;52.560;13.508;2023-04-22T03:27:21;100818.66;;;9.01;100.00
13734;BME280;43298;52.560;13.508;2023-04-22T03:29:46;100824.69;;;9.00;100.00
13734;BME280;43298;52.560;13.508;2023-04-22T03:32:12;100821.06;;;9.06;100.00
13734;BME280;43298;52.560;13.508;2023-04-22T03:34:38;100814.16;;;9.06;100.00
13734;BME280;43298;52.560;13.508;2023-04-22T03:37:04;100814.50;;;8.97;100.00
13734;BME280;43298;52.560;13.508;2023-04-22T03:39:29;100815.91;;;9.06;100.00
13734;BME280;43298;52.560;13.508;2023-04-22T03:41:55;100814.59;;;8.94;100.00
13734;BME280;43298;52.560;13.508;2023-04-22T03:44:21;100823.78;;;8.77;100.00
13734;BME280;43298;52.560;13.508;2023-04-22T03:46:47;100823.53;;;8.84;100.00
13734;BME280;43298;52.560;13.508;2023-04-22T03:49:12;100820.25;;;8.79;100.00
13734;BME280;43298;52.560;13.508;2023-04-22T03:51:38;100828.38;;;8.67;100.00
13734;BME280;43298;52.560;13.508;2023-04-22T03:54:04;100828.88;;;8.52;100.00
13734;BME280;43298;52.560;13.508;2023-04-22T03:56:30;100829.16;;;8.43;100.00
13734;BME280;43298;52.560;13.508;2023-04-22T03:58:56;100823.41;;;8.35;100.00
13734;BME280;43298;52.560;13.508;2023-04-22T04:01:21;100824.91;;;8.42;100.00
13734;BME280;43298;52.560;13.508;2023-04-22T04:03:48;100822.19;;;8.47;100.00
13734;BME280;43298;52.560;13.508;2023-04-22T04:06:13;100831.47;;;8.52;100.00
13734;BME280;43298;52.560;13.508;2023-04-22T04:08:40;100823.72;;;8.52;100.00
13734;BME280;43298;52.560;13.508;2023-04-22T04:11:08;100825.59;;;8.47;100.00
13734;BME280;43298;52.560;13.508;2023-04-22T04:13:35;100831.56;;;8.49;100.00
13734;BME280;43298;52.560;13.508;2023-04-22T04:16:01;100827.97;;;8.53;100.00
13734;BME280;43298;52.560;13.508;2023-04-22T04:18:26;100825.22;;;8.59;100.00
13734;BME280;43298;52.560;13.508;2023-04-22T04:20:54;100823.47;;;8.60;100.00
13734;BME280;43298;52.560;13.508;2023-04-22T04:23:21;100827.47;;;8.68;100.00
13734;BME280;43298;52.560;13.508;2023-04-22T04:25:46;100821.72;;;8.86;100.00
13734;BME280;43298;52.560;13.508;2023-04-22T04:28:12;100818.81;;;8.97;100.00
13734;BME280;43298;52.560;13.508;2023-04-22T04:30:38;100817.94;;;8.96;100.00
13734;BME280;43298;52.560;13.508;2023-04-22T04:33:06;100823.91;;;8.98;100.00
13734;BME280;43298;52.560;13.508;2023-04-22T04:35:35;100822.28;;;8.96;100.00
13734;BME280;43298;52.560;13.508;2023-04-22T04:38:03;100817.94;;;8.96;100.00
13734;BME280;43298;52.560;13.508;2023-04-22T04:40:30;100819.53;;;9.00;100.00
13734;BME280;43298;52.560;13.508;2023-04-22T04:42:56;100817.56;;;9.08;100.00
13734;BME280;43298;52.560;13.508;2023-04-22T04:45:27;100821.84;;;9.08;100.00
13734;BME280;43298;52.560;13.508;2023-04-22T04:47:54;100820.50;;;9.23;100.00
13734;BME280;43298;52.560;13.508;2023-04-22T04:50:20;100822.84;;;9.28;100.00
13734;BME280;43298;52.560;13.508;2023-04-22T04:52:47;100830.28;;;9.38;100.00
13734;BME280;43298;52.560;13.508;2023-04-22T04:55:14;100830.28;;;9.38;100.00
13734;BME280;43298;52.560;13.508;2023-04-22T04:57:40;100821.53;;;9.42;100.00
13734;BME280;43298;52.560;13.508;2023-04-22T05:00:06;100816.03;;;9.51;100.00
13734;BME280;43298;52.560;13.508;2023-04-22T05:02:32;100818.84;;;9.68;100.00
13734;BME280;43298;52.560;13.508;2023-04-22T05:04:58;100814.22;;;9.76;100.00
13734;BME280;43298;52.560;13.508;2023-04-22T05:07:24;100820.19;;;9.78;100.00
13734;BME280;43298;52.560;13.508;2023-04-22T05:09:50;100814.91;;;9.81;100.00
13734;BME280;43298;52.560;13.508;2023-04-22T05:12:16;100819.88;;;9.87;100.00
13734;BME280;43298;52.560;13.508;2023-04-22T05:14:41;100813.69;;;9.91;100.00
13734;BME280;43298;52.560;13.508;2023-04-22T05:17:07;100815.19;;;9.96;100.00
13734;BME280;43298;52.560;13.508;2023-04-22T05:19:33;100818.47;;;10.00;100.00
13734;BME280;43298;52.560;13.508;2023-04-22T05:21:59;100811.19;;;10.11;100.00
13734;BME280;43298;52.560;13.508;2023-04-22T05:24:25;100817.97;;;10.13;100.00
13734;BME280;43298;52.560;13.508;2023-04-22T05:26:50;100817.59;;;10.24;100.00
13734;BME280;43298;52.560;13.508;2023-04-22T05:29:16;100823.13;;;10.36;100.00
13734;BME280;43298;52.560;13.508;2023-04-22T05:31:42;100822.69;;;10.47;100.00
13734;BME280;43298;52.560;13.508;2023-04-22T05:34:08;100821.34;;;10.58;100.00
13734;BME280;43298;52.560;13.508;2023-04-22T05:36:34;100821.28;;;10.60;100.00
13734;BME280;43298;52.560;13.508;2023-04-22T05:39:00;100818.41;;;10.67;100.00
13734;BME280;43298;52.560;13.508;2023-04-22T05:41:26;100820.66;;;10.75;100.00
13734;BME280;43298;52.560;13.508;2023-04-22T05:43:51;100817.03;;;10.79;100.00
13734;BME280;43298;52.560;13.508;2023-04-22T05:46:17;100814.72;;;10.93;100.00
13734;BME280;43298;52.560;13.508;2023-04-22T05:48:43;100810.59;;;11.09;100.00
13734;BME280;43298;52.560;13.508;2023-04-22T05:51:09;100810.94;;;11.21;100.00
13734;BME280;43298;52.560;13.508;2023-04-22T05:53:35;100815.69;;;11.30;100.00
13734;BME280;43298;52.560;13.508;2023-04-22T05:56:00;100810.28;;;11.55;100.00
13734;BME280;43298;52.560;13.508;2023-04-22T05:58:26;100815.72;;;12.25;100.00
13734;BME280;43298;52.560;13.508;2023-04-22T06:00:52;100811.53;;;12.92;100.00
13734;BME280;43298;52.560;13.508;2023-04-22T06:03:18;100807.63;;;13.34;99.85
13734;BME280;43298;52.560;13.508;2023-04-22T06:05:43;100803.97;;;13.86;96.82
13734;BME280;43298;52.560;13.508;2023-04-22T06:08:10;100804.88;;;14.16;92.50
13734;BME280;43298;52.560;13.508;2023-04-22T06:10:35;100804.88;;;14.47;91.75
13734;BME280;43298;52.560;13.508;2023-04-22T06:13:01;100809.06;;;14.50;87.80
13734;BME280;43298;52.560;13.508;2023-04-22T06:15:28;100801.03;;;14.39;89.06
13734;BME280;43298;52.560;13.508;2023-04-22T06:17:54;100805.84;;;14.90;87.27
13734;BME280;43298;52.560;13.508;2023-04-22T06:20:22;100808.91;;;15.12;85.12
13734;BME280;43298;52.560;13.508;2023-04-22T06:22:48;100811.09;;;14.60;85.81
13734;BME280;43298;52.560;13.508;2023-04-22T06:25:14;100815.94;;;14.51;85.56
13734;BME280;43298;52.560;13.508;2023-04-22T06:27:40;100816.28;;;14.60;86.50
13734;BME280;43298;52.560;13.508;2023-04-22T06:30:06;100808.72;;;14.71;86.80
13734;BME280;43298;52.560;13.508;2023-04-22T06:32:32;100808.78;;;14.99;87.30
13734;BME280;43298;52.560;13.508;2023-04-22T06:34:58;100806.75;;;15.04;85.34
13734;BME280;43298;52.560;13.508;2023-04-22T06:37:24;100807.13;;;15.13;84.94
13734;BME280;43298;52.560;13.508;2023-04-22T06:39:51;100801.53;;;14.75;84.86
13734;BME280;43298;52.560;13.508;2023-04-22T06:42:17;100802.41;;;14.75;84.58
13734;BME280;43298;52.560;13.508;2023-04-22T06:44:42;100808.03;;;14.97;84.84
13734;BME280;43298;52.560;13.508;2023-04-22T06:47:08;100807.03;;;15.14;84.55
13734;BME280;43298;52.560;13.508;2023-04-22T06:49:34;100803.00;;;15.52;83.58
13734;BME280;43298;52.560;13.508;2023-04-22T06:52:03;100798.34;;;15.43;82.39
13734;BME280;43298;52.560;13.508;2023-04-22T06:54:29;100804.03;;;15.64;83.81
13734;BME280;43298;52.560;13.508;2023-04-22T06:56:57;100802.06;;;15.81;80.74
13734;BME280;43298;52.560;13.508;2023-04-22T06:59:23;100798.41;;;15.84;80.41
13734;BME280;43298;52.560;13.508;2023-04-22T07:01:48;100800.88;;;16.13;80.62
13734;BME280;43298;52.560;13.508;2023-04-22T07:04:14;100807.00;;;16.26;80.08
13734;BME280;43298;52.560;13.508;2023-04-22T07:06:41;100796.25;;;16.31;80.46
13734;BME280;43298;52.560;13.508;2023-04-22T07:09:07;100797.53;;;16.64;79.22
13734;BME280;43298;52.560;13.508;2023-04-22T07:11:33;100802.53;;;16.55;76.98
13734;BME280;43298;52.560;13.508;2023-04-22T07:13:59;100804.72;;;16.48;77.31
13734;BME280;43298;52.560;13.508;2023-04-22T07:16:25;100794.19;;;16.36;77.08
13734;BME280;43298;52.560;13.508;2023-04-22T07:18:52;100799.66;;;16.72;78.59
13734;BME280;43298;52.560;13.508;2023-04-22T07:21:17;100797.84;;;17.11;76.80
13734;BME280;43298;52.560;13.508;2023-04-22T07:23:43;100806.19;;;17.04;74.92
13734;BME280;43298;52.560;13.508;2023-04-22T07:26:09;100797.41;;;17.30;77.14
13734;BME280;43298;52.560;13.508;2023-04-22T07:28:35;100803.91;;;17.24;75.44
13734;BME280;43298;52.560;13.508;2023-04-22T07:31:01;100800.13;;;17.03;76.25
13734;BME280;43298;52.560;13.508;2023-04-22T07:33:27;100795.53;;;17.07;74.30
13734;BME280;43298;52.560;13.508;2023-04-22T07:35:53;100790.22;;;17.71;75.58
13734;BME280;43298;52.560;13.508;2023-04-22T07:38:19;100791.66;;;17.75;72.89
13734;BME280;43298;52.560;13.508;2023-04-22T07:40:45;100791.06;;;17.59;73.45
13734;BME280;43298;52.560;13.508;2023-04-22T07:43:11;100787.75;;;17.93;72.76
13734;BME280;43298;52.560;13.508;2023-04-22T07:45:37;100791.03;;;17.71;75.11
13734;BME280;43298;52.560;13.508;2023-04-22T07:48:03;100785.34;;;17.90;72.70
13734;BME280;43298;52.560;13.508;2023-04-22T07:50:29;100786.16;;;18.27;73.39
13734;BME280;43298;52.560;13.508;2023-04-22T07:52:55;100785.44;;;18.25;70.47
13734;BME280;43298;52.560;13.508;2023-04-22T07:55:21;100778.66;;;18.22;70.75
13734;BME280;43298;52.560;13.508;2023-04-22T07:57:47;100775.81;;;18.49;70.16
13734;BME280;43298;52.560;13.508;2023-04-22T08:00:13;100780.38;;;18.81;71.55
13734;BME280;43298;52.560;13.508;2023-04-22T08:02:39;100775.81;;;18.83;69.19
13734;BME280;43298;52.560;13.508;2023-04-22T08:05:06;100771.88;;;18.78;69.00
13734;BME280;43298;52.560;13.508;2023-04-22T08:07:32;100770.72;;;19.27;68.38
13734;BME280;43298;52.560;13.508;2023-04-22T08:09:57;100767.78;;;19.19;69.69
13734;BME280;43298;52.560;13.508;2023-04-22T08:12:23;100765.75;;;18.90;69.17
13734;BME280;43298;52.560;13.508;2023-04-22T08:14:49;100765.78;;;19.12;68.48
13734;BME280;43298;52.560;13.508;2023-04-22T08:17:15;100762.72;;;19.29;67.60
13734;BME280;43298;52.560;13.508;2023-04-22T08:19:41;100755.69;;;19.73;67.02
13734;BME280;43298;52.560;13.508;2023-04-22T08:22:06;100756.81;;;20.02;65.23
13734;BME280;43298;52.560;13.508;2023-04-22T08:24:32;100760.97;;;20.47;66.93
13734;BME280;43298;52.560;13.508;2023-04-22T08:26:58;100765.22;;;20.28;63.68
13734;BME280;43298;52.560;13.508;2023-04-22T08:29:24;100756.00;;;20.44;63.69
13734;BME280;43298;52.560;13.508;2023-04-22T08:31:50;100753.88;;;20.59;63.97
13734;BME280;43298;52.560;13.508;2023-04-22T08:34:15;100749.34;;;20.82;62.84
13734;BME280;43298;52.560;13.508;2023-04-22T08:36:41;100746.31;;;20.97;61.29
13734;BME280;43298;52.560;13.508;2023-04-22T08:39:07;100747.09;;;20.56;62.45
13734;BME280;43298;52.560;13.508;2023-04-22T08:41:34;100750.56;;;20.78;62.06
13734;BME280;43298;52.560;13.508;2023-04-22T08:44:01;100734.25;;;20.95;61.34
13734;BME280;43298;52.560;13.508;2023-04-22T08:46:27;100736.25;;;20.91;59.48
13734;BME280;43298;52.560;13.508;2023-04-22T08:48:56;100740.81;;;21.30;59.41
13734;BME280;43298;52.560;13.508;2023-04-22T08:51:27;100742.31;;;21.63;59.94
13734;BME280;43298;52.560;13.508;2023-04-22T08:53:53;100742.13;;;21.55;58.15
13734;BME280;43298;52.560;13.508;2023-04-22T08:56:20;100744.25;;;22.10;56.93
13734;BME280;43298;52.560;13.508;2023-04-22T08:58:47;100741.91;;;22.26;55.95
13734;BME280;43298;52.560;13.508;2023-04-22T09:01:14;100742.44;;;21.61;54.91
13734;BME280;43298;52.560;13.508;2023-04-22T09:03:42;100743.72;;;21.37;55.56
13734;BME280;43298;52.560;13.508;2023-04-22T09:06:10;100743.25;;;21.62;55.18
13734;BME280;43298;52.560;13.508;2023-04-22T09:08:37;100744.38;;;21.99;56.29
13734;BME280;43298;52.560;13.508;2023-04-22T09:11:03;100735.22;;;22.03;54.18
13734;BME280;43298;52.560;13.508;2023-04-22T09:13:29;100738.84;;;22.40;55.35
13734;BME280;43298;52.560;13.508;2023-04-22T09:15:55;100732.78;;;22.30;54.48
13734;BME280;43298;52.560;13.508;2023-04-22T09:18:21;100736.22;;;22.02;54.32
13734;BME280;43298;52.560;13.508;2023-04-22T09:20:48;100728.28;;;22.87;56.32
13734;BME280;43298;52.560;13.508;2023-04-22T09:23:14;100728.78;;;23.10;52.64
13734;BME280;43298;52.560;13.508;2023-04-22T09:25:41;100735.09;;;22.99;53.56
13734;BME280;43298;52.560;13.508;2023-04-22T09:28:15;100730.81;;;22.22;53.65
13734;BME280;43298;52.560;13.508;2023-04-22T09:30:44;100717.38;;;22.35;53.57
13734;BME280;43298;52.560;13.508;2023-04-22T09:33:11;100722.06;;;22.03;54.37
13734;BME280;43298;52.560;13.508;2023-04-22T09:35:40;100717.09;;;22.38;53.62
13734;BME280;43298;52.560;13.508;2023-04-22T09:38:10;100702.06;;;22.86;55.50
13734;BME280;43298;52.560;13.508;2023-04-22T09:40:43;100697.22;;;22.72;53.90
13734;BME280;43298;52.560;13.508;2023-04-22T09:43:09;100703.47;;;22.71;53.26
13734;BME280;43298;52.560;13.508;2023-04-22T09:45:39;100702.41;;;23.74;53.84
13734;BME280;43298;52.560;13.508;2023-04-22T09:48:06;100700.59;;;23.74;50.91
13734;BME280;43298;52.560;13.508;2023-04-22T09:50:34;100701.56;;;23.09;51.61
13734;BME280;43298;52.560;13.508;2023-04-22T09:53:05;100689.16;;;23.29;51.50
13734;BME280;43298;52.560;13.508;2023-04-22T09:55:35;100679.44;;;23.29;51.83
13734;BME280;43298;52.560;13.508;2023-04-22T09:58:13;100682.94;;;23.30;51.70
13734;BME280;43298;52.560;13.508;2023-04-22T10:00:44;100675.03;;;23.20;50.06
13734;BME280;43298;52.560;13.508;2023-04-22T10:03:12;100680.25;;;23.84;51.60
13734;BME280;43298;52.560;13.508;2023-04-22T10:05:38;100672.13;;;23.68;49.82
13734;BME280;43298;52.560;13.508;2023-04-22T10:08:08;100675.78;;;23.03;49.22
13734;BME280;43298;52.560;13.508;2023-04-22T10:10:35;100674.19;;;23.92;50.36
13734;BME280;43298;52.560;13.508;2023-04-22T10:13:02;100674.31;;;24.00;49.59
13734;BME280;43298;52.560;13.508;2023-04-22T10:15:51;100674.47;;;24.33;48.67
13734;BME280;43298;52.560;13.508;2023-04-22T10:18:25;100667.09;;;24.45;48.95
13734;BME280;43298;52.560;13.508;2023-04-22T10:20:53;100665.97;;;24.47;47.27
13734;BME280;43298;52.560;13.508;2023-04-22T10:23:23;100660.03;;;24.96;49.43
13734;BME280;43298;52.560;13.508;2023-04-22T10:25:57;100654.84;;;24.87;47.29
13734;BME280;43298;52.560;13.508;2023-04-22T10:28:26;100651.44;;;24.69;46.66
13734;BME280;43298;52.560;13.508;2023-04-22T10:30:53;100650.00;;;24.14;45.77
13734;BME280;43298;52.560;13.508;2023-04-22T10:41:17;100632.28;;;25.00;46.31
13734;BME280;43298;52.560;13.508;2023-04-22T10:43:54;100638.91;;;25.04;45.50
13734;BME280;43298;52.560;13.508;2023-04-22T10:49:09;100630.63;;;25.41;45.29
13734;BME280;43298;52.560;13.508;2023-04-22T10:51:39;100627.38;;;24.37;47.06
13734;BME280;43298;52.560;13.508;2023-04-22T10:54:06;100629.09;;;24.63;44.97
13734;BME280;43298;52.560;13.508;2023-04-22T10:56:32;100626.16;;;24.74;45.66
13734;BME280;43298;52.560;13.508;2023-04-22T10:58:58;100622.00;;;24.03;45.29
13734;BME280;43298;52.560;13.508;2023-04-22T11:01:27;100609.22;;;24.16;45.97
13734;BME280;43298;52.560;13.508;2023-04-22T11:03:53;100617.13;;;24.34;44.28
13734;BME280;43298;52.560;13.508;2023-04-22T11:06:20;100612.09;;;24.48;44.90
13734;BME280;43298;52.560;13.508;2023-04-22T11:09:08;100612.75;;;24.50;43.98
13734;BME280;43298;52.560;13.508;2023-04-22T11:11:34;100606.31;;;25.45;44.61
13734;BME280;43298;52.560;13.508;2023-04-22T11:14:00;100599.34;;;25.36;45.26
13734;BME280;43298;52.560;13.508;2023-04-22T11:16:26;100598.03;;;24.99;43.59
13734;BME280;43298;52.560;13.508;2023-04-22T11:18:56;100601.38;;;24.75;43.84
13734;BME280;43298;52.560;13.508;2023-04-22T11:21:23;100595.97;;;24.34;43.03
13734;BME280;43298;52.560;13.508;2023-04-22T11:23:51;100601.16;;;24.00;42.73
13734;BME280;43298;52.560;13.508;2023-04-22T11:26:17;100601.25;;;24.34;43.06
13734;BME280;43298;52.560;13.508;2023-04-22T11:28:47;100596.00;;;24.93;43.05
13734;BME280;43298;52.560;13.508;2023-04-22T11:31:13;100591.72;;;24.41;43.09
13734;BME280;43298;52.560;13.508;2023-04-22T11:33:39;100594.31;;;24.33;42.22
13734;BME280;43298;52.560;13.508;2023-04-22T11:36:11;100589.25;;;24.65;43.31
13734;BME280;43298;52.560;13.508;2023-04-22T11:38:38;100586.47;;;24.66;44.57
13734;BME280;43298;52.560;13.508;2023-04-22T11:41:03;100590.69;;;24.59;43.94
13734;BME280;43298;52.560;13.508;2023-04-22T11:43:29;100571.66;;;24.89;43.61
13734;BME280;43298;52.560;13.508;2023-04-22T11:45:56;100582.97;;;24.99;44.66
13734;BME280;43298;52.560;13.508;2023-04-22T11:48:23;100582.63;;;25.36;43.48
13734;BME280;43298;52.560;13.508;2023-04-22T11:50:49;100572.13;;;25.18;42.63
13734;BME280;43298;52.560;13.508;2023-04-22T11:53:31;100562.81;;;25.06;41.92
13734;BME280;43298;52.560;13.508;2023-04-22T11:55:56;100556.53;;;26.05;41.54
13734;BME280;43298;52.560;13.508;2023-04-22T11:58:26;100565.97;;;25.75;42.32
13734;BME280;43298;52.560;13.508;2023-04-22T12:00:54;100563.50;;;25.08;40.89
13734;BME280;43298;52.560;13.508;2023-04-22T12:03:25;100566.59;;;25.37;41.55
13734;BME280;43298;52.560;13.508;2023-04-22T12:05:54;100551.97;;;25.25;42.83
13734;BME280;43298;52.560;13.508;2023-04-22T12:08:24;100560.53;;;25.19;44.29
13734;BME280;43298;52.560;13.508;2023-04-22T12:10:56;100558.63;;;25.29;43.84
13734;BME280;43298;52.560;13.508;2023-04-22T12:13:29;100556.81;;;25.38;43.35
13734;BME280;43298;52.560;13.508;2023-04-22T12:16:02;100565.94;;;25.02;44.57
13734;BME280;43298;52.560;13.508;2023-04-22T12:23:39;100549.06;;;25.76;42.34
13734;BME280;43298;52.560;13.508;2023-04-22T12:26:05;100550.69;;;25.37;40.35
13734;BME280;43298;52.560;13.508;2023-04-22T12:28:31;100553.69;;;25.58;41.58
13734;BME280;43298;52.560;13.508;2023-04-22T12:30:56;100545.13;;;25.64;41.20
13734;BME280;43298;52.560;13.508;2023-04-22T12:33:22;100544.44;;;25.70;40.95
13734;BME280;43298;52.560;13.508;2023-04-22T12:35:48;100544.75;;;25.91;40.38
13734;BME280;43298;52.560;13.508;2023-04-22T12:38:17;100541.09;;;25.60;38.77
13734;BME280;43298;52.560;13.508;2023-04-22T12:40:43;100539.81;;;25.72;40.60
13734;BME280;43298;52.560;13.508;2023-04-22T12:43:09;100529.34;;;26.35;39.83
13734;BME280;43298;52.560;13.508;2023-04-22T12:45:35;100534.34;;;25.74;38.93
13734;BME280;43298;52.560;13.508;2023-04-22T12:48:01;100527.38;;;25.81;40.58
13734;BME280;43298;52.560;13.508;2023-04-22T12:50:27;100530.41;;;26.57;37.72